sensor_id;sensor_type;location;lat;lon;timestamp;P1;durP1;ratioP1;P2;durP2;ratioP2
2620;SDS011;1320;48.128;11.592;2023-02-23T00:00:24;19.70;;;12.53;;
2620;SDS011;1320;48.128;11.592;2023-02-23T00:02:53;14.30;;;11.10;;
2620;SDS011;1320;48.128;11.592;2023-02-23T00:05:20;15.90;;;10.80;;
2620;SDS011;1320;48.128;11.592;2023-02-23T00:07:47;23.13;;;12.93;;
2620;SDS011;1320;48.128;11.592;2023-02-23T00:10:13;15.60;;;11.50;;
2620;SDS011;1320;48.128;11.592;2023-02-23T00:12:39;24.40;;;13.17;;
2620;SDS011;1320;48.128;11.592;2023-02-23T00:15:06;17.47;;;10.50;;
2620;SDS011;1320;48.128;11.592;2023-02-23T00:17:32;21.67;;;10.27;;
2620;SDS011;1320;48.128;11.592;2023-02-23T00:20:00;17.00;;;11.80;;
2620;SDS011;1320;48.128;11.592;2023-02-23T00:22:35;17.83;;;12.37;;
2620;SDS011;1320;48.128;11.592;2023-02-23T00:25:05;20.83;;;12.97;;
2620;SDS011;1320;48.128;11.592;2023-02-23T00:27:32;17.93;;;12.23;;
2620;SDS011;1320;48.128;11.592;2023-02-23T00:29:58;16.60;;;11.33;;
2620;SDS011;1320;48.128;11.592;2023-02-23T00:32:24;16.93;;;11.60;;
2620;SDS011;1320;48.128;11.592;2023-02-23T00:34:50;19.67;;;11.97;;
2620;SDS011;1320;48.128;11.592;2023-02-23T00:37:16;18.97;;;11.90;;
2620;SDS011;1320;48.128;11.592;2023-02-23T00:39:42;17.37;;;12.13;;
2620;SDS011;1320;48.128;11.592;2023-02-23T00:42:08;15.73;;;11.40;;
2620;SDS011;1320;48.128;11.592;2023-02-23T00:44:34;18.80;;;12.43;;
2620;SDS011;1320;48.128;11.592;2023-02-23T00:47:04;16.80;;;11.17;;
2620;SDS011;1320;48.128;11.592;2023-02-23T00:49:30;19.07;;;11.87;;
2620;SDS011;1320;48.128;11.592;2023-02-23T00:51:56;22.27;;;12.27;;
2620;SDS011;1320;48.128;11.592;2023-02-23T00:54:22;22.33;;;13.10;;
2620;SDS011;1320;48.128;11.592;2023-02-23T00:56:48;15.80;;;11.57;;
2620;SDS011;1320;48.128;11.592;2023-02-23T00:59:14;18.13;;;11.47;;
2620;SDS011;1320;48.128;11.592;2023-02-23T01:01:40;19.40;;;12.90;;
2620;SDS011;1320;48.128;11.592;2023-02-23T01:04:06;15.73;;;11.60;;
2620;SDS011;1320;48.128;11.592;2023-02-23T01:06:33;22.37;;;14.33;;
2620;SDS011;1320;48.128;11.592;2023-02-23T01:09:05;21.40;;;12.97;;
2620;SDS011;1320;48.128;11.592;2023-02-23T01:11:35;19.70;;;11.93;;
2620;SDS011;1320;48.128;11.592;2023-02-23T01:14:01;17.20;;;12.23;;
2620;SDS011;1320;48.128;11.592;2023-02-23T01:16:29;19.73;;;13.57;;
2620;SDS011;1320;48.128;11.592;2023-02-23T01:18:57;18.57;;;11.40;;
2620;SDS011;1320;48.128;11.592;2023-02-23T01:21:26;17.97;;;12.47;;
2620;SDS011;1320;48.128;11.592;2023-02-23T01:23:54;21.00;;;13.70;;
2620;SDS011;1320;48.128;11.592;2023-02-23T01:28:50;19.00;;;11.70;;
2620;SDS011;1320;48.128;11.592;2023-02-23T01:31:18;20.50;;;13.70;;
2620;SDS011;1320;48.128;11.592;2023-02-23T01:33:44;19.90;;;12.60;;
2620;SDS011;1320;48.128;11.592;2023-02-23T01:36:10;19.83;;;12.63;;
2620;SDS011;1320;48.128;11.592;2023-02-23T01:38:37;22.63;;;11.70;;
2620;SDS011;1320;48.128;11.592;2023-02-23T01:41:03;19.50;;;12.97;;
2620;SDS011;1320;48.128;11.592;2023-02-23T01:43:31;18.23;;;12.20;;
2620;SDS011;1320;48.128;11.592;2023-02-23T01:45:57;20.67;;;14.20;;
2620;SDS011;1320;48.128;11.592;2023-02-23T01:48:26;19.80;;;13.17;;
2620;SDS011;1320;48.128;11.592;2023-02-23T01:51:00;20.47;;;13.83;;
2620;SDS011;1320;48.128;11.592;2023-02-23T01:53:41;21.33;;;13.27;;
2620;SDS011;1320;48.128;11.592;2023-02-23T01:56:17;23.30;;;13.93;;
2620;SDS011;1320;48.128;11.592;2023-02-23T01:58:46;20.50;;;13.47;;
2620;SDS011;1320;48.128;11.592;2023-02-23T02:01:18;20.00;;;13.63;;
2620;SDS011;1320;48.128;11.592;2023-02-23T02:03:47;20.23;;;13.27;;
2620;SDS011;1320;48.128;11.592;2023-02-23T02:06:17;21.13;;;13.53;;
2620;SDS011;1320;48.128;11.592;2023-02-23T02:08:48;24.10;;;14.20;;
2620;SDS011;1320;48.128;11.592;2023-02-23T02:11:19;17.37;;;13.17;;
2620;SDS011;1320;48.128;11.592;2023-02-23T02:14:09;18.00;;;12.93;;
2620;SDS011;1320;48.128;11.592;2023-02-23T02:38:40;23.90;;;15.80;;
2620;SDS011;1320;48.128;11.592;2023-02-23T02:41:23;21.40;;;14.20;;
2620;SDS011;1320;48.128;11.592;2023-02-23T02:44:02;19.77;;;13.40;;
2620;SDS011;1320;48.128;11.592;2023-02-23T02:46:54;20.20;;;14.00;;
2620;SDS011;1320;48.128;11.592;2023-02-23T02:49:28;21.60;;;13.93;;
2620;SDS011;1320;48.128;11.592;2023-02-23T02:52:07;20.00;;;13.50;;
2620;SDS011;1320;48.128;11.592;2023-02-23T02:54:40;21.73;;;14.53;;
2620;SDS011;1320;48.128;11.592;2023-02-23T02:57:12;20.67;;;14.40;;
2620;SDS011;1320;48.128;11.592;2023-02-23T02:59:46;27.37;;;15.00;;
2620;SDS011;1320;48.128;11.592;2023-02-23T03:02:33;20.30;;;14.30;;
2620;SDS011;1320;48.128;11.592;2023-02-23T03:05:21;21.60;;;14.60;;
2620;SDS011;1320;48.128;11.592;2023-02-23T03:11:43;19.90;;;13.23;;
2620;SDS011;1320;48.128;11.592;2023-02-23T03:17:59;21.83;;;14.30;;
2620;SDS011;1320;48.128;11.592;2023-02-23T03:21:03;22.20;;;12.80;;
2620;SDS011;1320;48.128;11.592;2023-02-23T03:24:04;21.47;;;13.07;;
2620;SDS011;1320;48.128;11.592;2023-02-23T03:32:49;22.47;;;13.90;;
2620;SDS011;1320;48.128;11.592;2023-02-23T03:35:56;18.07;;;13.13;;
2620;SDS011;1320;48.128;11.592;2023-02-23T03:42:04;32.10;;;16.80;;
2620;SDS011;1320;48.128;11.592;2023-02-23T03:44:53;27.40;;;14.97;;
2620;SDS011;1320;48.128;11.592;2023-02-23T03:47:40;23.10;;;15.07;;
2620;SDS011;1320;48.128;11.592;2023-02-23T03:50:34;19.93;;;14.20;;
2620;SDS011;1320;48.128;11.592;2023-02-23T03:53:29;21.97;;;14.60;;
2620;SDS011;1320;48.128;11.592;2023-02-23T03:56:18;21.83;;;15.27;;
2620;SDS011;1320;48.128;11.592;2023-02-23T03:59:07;22.70;;;13.77;;
2620;SDS011;1320;48.128;11.592;2023-02-23T04:01:55;18.47;;;13.80;;
2620;SDS011;1320;48.128;11.592;2023-02-23T04:04:41;21.73;;;13.90;;
2620;SDS011;1320;48.128;11.592;2023-02-23T04:07:29;22.40;;;13.00;;
2620;SDS011;1320;48.128;11.592;2023-02-23T04:10:14;18.03;;;12.53;;
2620;SDS011;1320;48.128;11.592;2023-02-23T04:13:03;21.77;;;14.40;;
2620;SDS011;1320;48.128;11.592;2023-02-23T04:15:40;24.90;;;16.60;;
2620;SDS011;1320;48.128;11.592;2023-02-23T04:18:18;22.10;;;14.07;;
2620;SDS011;1320;48.128;11.592;2023-02-23T04:20:50;17.87;;;13.30;;
2620;SDS011;1320;48.128;11.592;2023-02-23T04:23:16;21.27;;;14.37;;
2620;SDS011;1320;48.128;11.592;2023-02-23T04:25:42;22.07;;;13.53;;
2620;SDS011;1320;48.128;11.592;2023-02-23T04:28:08;18.33;;;12.90;;
2620;SDS011;1320;48.128;11.592;2023-02-23T04:30:34;23.77;;;14.77;;
2620;SDS011;1320;48.128;11.592;2023-02-23T04:32:59;22.07;;;14.70;;
2620;SDS011;1320;48.128;11.592;2023-02-23T04:35:26;21.63;;;12.37;;
2620;SDS011;1320;48.128;11.592;2023-02-23T04:37:53;22.40;;;15.07;;
2620;SDS011;1320;48.128;11.592;2023-02-23T04:40:19;20.40;;;13.07;;
2620;SDS011;1320;48.128;11.592;2023-02-23T04:42:45;18.03;;;13.30;;
2620;SDS011;1320;48.128;11.592;2023-02-23T04:45:11;24.13;;;14.67;;
2620;SDS011;1320;48.128;11.592;2023-02-23T04:47:37;21.43;;;14.23;;
2620;SDS011;1320;48.128;11.592;2023-02-23T04:50:02;22.50;;;14.00;;
2620;SDS011;1320;48.128;11.592;2023-02-23T04:52:28;19.57;;;12.70;;
2620;SDS011;1320;48.128;11.592;2023-02-23T04:54:55;21.73;;;12.20;;
2620;SDS011;1320;48.128;11.592;2023-02-23T04:57:21;17.67;;;11.70;;
2620;SDS011;1320;48.128;11.592;2023-02-23T04:59:46;20.13;;;12.30;;
2620;SDS011;1320;48.128;11.592;2023-02-23T05:02:12;20.00;;;13.20;;
2620;SDS011;1320;48.128;11.592;2023-02-23T05:04:38;23.23;;;13.23;;
2620;SDS011;1320;48.128;11.592;2023-02-23T05:07:03;19.60;;;12.70;;
2620;SDS011;1320;48.128;11.592;2023-02-23T05:09:29;23.20;;;12.37;;
2620;SDS011;1320;48.128;11.592;2023-02-23T05:11:55;18.60;;;12.20;;
2620;SDS011;1320;48.128;11.592;2023-02-23T05:14:21;14.10;;;10.80;;
2620;SDS011;1320;48.128;11.592;2023-02-23T05:16:47;23.83;;;12.33;;
2620;SDS011;1320;48.128;11.592;2023-02-23T05:19:13;21.67;;;12.50;;
2620;SDS011;1320;48.128;11.592;2023-02-23T05:21:39;16.50;;;10.83;;
2620;SDS011;1320;48.128;11.592;2023-02-23T05:24:05;19.23;;;12.40;;
2620;SDS011;1320;48.128;11.592;2023-02-23T05:26:32;19.73;;;13.13;;
2620;SDS011;1320;48.128;11.592;2023-02-23T05:28:57;19.00;;;12.50;;
2620;SDS011;1320;48.128;11.592;2023-02-23T05:31:23;20.40;;;11.90;;
2620;SDS011;1320;48.128;11.592;2023-02-23T05:33:50;19.40;;;12.77;;
2620;SDS011;1320;48.128;11.592;2023-02-23T05:36:16;23.03;;;12.37;;
2620;SDS011;1320;48.128;11.592;2023-02-23T05:38:44;17.30;;;10.97;;
2620;SDS011;1320;48.128;11.592;2023-02-23T05:41:11;17.43;;;11.80;;
2620;SDS011;1320;48.128;11.592;2023-02-23T05:43:38;17.60;;;11.97;;
2620;SDS011;1320;48.128;11.592;2023-02-23T05:46:08;20.60;;;13.37;;
2620;SDS011;1320;48.128;11.592;2023-02-23T05:48:35;16.20;;;12.10;;
2620;SDS011;1320;48.128;11.592;2023-02-23T05:51:04;17.87;;;12.07;;
2620;SDS011;1320;48.128;11.592;2023-02-23T05:53:32;18.30;;;12.50;;
2620;SDS011;1320;48.128;11.592;2023-02-23T05:55:58;19.57;;;12.03;;
2620;SDS011;1320;48.128;11.592;2023-02-23T05:58:25;18.53;;;13.63;;
2620;SDS011;1320;48.128;11.592;2023-02-23T06:00:51;19.50;;;12.00;;
2620;SDS011;1320;48.128;11.592;2023-02-23T06:03:17;21.03;;;12.83;;
2620;SDS011;1320;48.128;11.592;2023-02-23T06:05:50;24.37;;;14.80;;
2620;SDS011;1320;48.128;11.592;2023-02-23T06:08:20;17.60;;;12.00;;
2620;SDS011;1320;48.128;11.592;2023-02-23T06:10:47;18.53;;;12.17;;
2620;SDS011;1320;48.128;11.592;2023-02-23T06:13:13;20.17;;;12.90;;
2620;SDS011;1320;48.128;11.592;2023-02-23T06:15:39;19.77;;;13.00;;
2620;SDS011;1320;48.128;11.592;2023-02-23T06:18:05;15.93;;;11.60;;
2620;SDS011;1320;48.128;11.592;2023-02-23T06:20:32;18.57;;;11.63;;
2620;SDS011;1320;48.128;11.592;2023-02-23T06:22:59;25.23;;;13.23;;
2620;SDS011;1320;48.128;11.592;2023-02-23T06:25:24;22.10;;;13.23;;
2620;SDS011;1320;48.128;11.592;2023-02-23T06:27:50;22.87;;;13.60;;
2620;SDS011;1320;48.128;11.592;2023-02-23T06:30:16;19.50;;;11.60;;
2620;SDS011;1320;48.128;11.592;2023-02-23T06:32:42;24.13;;;13.87;;
2620;SDS011;1320;48.128;11.592;2023-02-23T06:35:08;16.07;;;11.73;;
2620;SDS011;1320;48.128;11.592;2023-02-23T06:37:34;21.00;;;12.00;;
2620;SDS011;1320;48.128;11.592;2023-02-23T06:40:01;17.70;;;12.77;;
2620;SDS011;1320;48.128;11.592;2023-02-23T06:42:29;15.87;;;11.00;;
2620;SDS011;1320;48.128;11.592;2023-02-23T06:44:55;16.00;;;12.27;;
2620;SDS011;1320;48.128;11.592;2023-02-23T06:47:21;20.63;;;12.73;;
2620;SDS011;1320;48.128;11.592;2023-02-23T06:49:46;23.83;;;12.67;;
2620;SDS011;1320;48.128;11.592;2023-02-23T06:52:12;18.87;;;12.40;;
2620;SDS011;1320;48.128;11.592;2023-02-23T06:54:39;17.77;;;13.30;;
2620;SDS011;1320;48.128;11.592;2023-02-23T06:57:06;17.30;;;11.60;;
2620;SDS011;1320;48.128;11.592;2023-02-23T06:59:32;18.00;;;12.80;;
2620;SDS011;1320;48.128;11.592;2023-02-23T07:01:57;19.40;;;11.50;;
2620;SDS011;1320;48.128;11.592;2023-02-23T07:04:23;16.60;;;11.37;;
2620;SDS011;1320;48.128;11.592;2023-02-23T07:06:50;17.70;;;12.60;;
2620;SDS011;1320;48.128;11.592;2023-02-23T07:09:16;18.07;;;13.37;;
2620;SDS011;1320;48.128;11.592;2023-02-23T07:11:42;17.70;;;10.80;;
2620;SDS011;1320;48.128;11.592;2023-02-23T07:14:09;16.47;;;10.80;;
2620;SDS011;1320;48.128;11.592;2023-02-23T07:16:35;23.37;;;11.73;;
2620;SDS011;1320;48.128;11.592;2023-02-23T07:19:02;15.47;;;12.33;;
2620;SDS011;1320;48.128;11.592;2023-02-23T07:21:29;17.83;;;12.00;;
2620;SDS011;1320;48.128;11.592;2023-02-23T07:23:58;21.00;;;14.97;;
2620;SDS011;1320;48.128;11.592;2023-02-23T07:26:25;20.83;;;12.37;;
2620;SDS011;1320;48.128;11.592;2023-02-23T07:28:51;19.50;;;13.67;;
2620;SDS011;1320;48.128;11.592;2023-02-23T07:31:17;17.23;;;10.87;;
2620;SDS011;1320;48.128;11.592;2023-02-23T07:33:42;19.57;;;12.23;;
2620;SDS011;1320;48.128;11.592;2023-02-23T07:36:09;23.47;;;13.77;;
2620;SDS011;1320;48.128;11.592;2023-02-23T07:38:35;12.80;;;10.07;;
2620;SDS011;1320;48.128;11.592;2023-02-23T07:41:00;16.23;;;8.60;;
2620;SDS011;1320;48.128;11.592;2023-02-23T07:43:26;14.43;;;9.10;;
2620;SDS011;1320;48.128;11.592;2023-02-23T07:45:52;13.27;;;7.70;;
2620;SDS011;1320;48.128;11.592;2023-02-23T07:48:18;12.67;;;9.27;;
2620;SDS011;1320;48.128;11.592;2023-02-23T07:50:45;18.40;;;8.57;;
2620;SDS011;1320;48.128;11.592;2023-02-23T07:53:11;22.23;;;9.43;;
2620;SDS011;1320;48.128;11.592;2023-02-23T07:55:37;21.67;;;9.10;;
2620;SDS011;1320;48.128;11.592;2023-02-23T07:58:04;15.63;;;8.17;;
2620;SDS011;1320;48.128;11.592;2023-02-23T08:00:31;21.40;;;9.60;;
2620;SDS011;1320;48.128;11.592;2023-02-23T08:02:57;30.07;;;13.00;;
2620;SDS011;1320;48.128;11.592;2023-02-23T08:05:23;23.07;;;10.77;;
2620;SDS011;1320;48.128;11.592;2023-02-23T08:07:50;16.73;;;10.87;;
2620;SDS011;1320;48.128;11.592;2023-02-23T08:10:16;19.87;;;11.00;;
2620;SDS011;1320;48.128;11.592;2023-02-23T08:12:41;17.27;;;11.03;;
2620;SDS011;1320;48.128;11.592;2023-02-23T08:15:08;16.70;;;10.20;;
2620;SDS011;1320;48.128;11.592;2023-02-23T08:17:35;13.80;;;11.07;;
2620;SDS011;1320;48.128;11.592;2023-02-23T08:20:02;24.30;;;11.63;;
2620;SDS011;1320;48.128;11.592;2023-02-23T08:22:28;24.53;;;11.50;;
2620;SDS011;1320;48.128;11.592;2023-02-23T08:24:54;18.37;;;11.03;;
2620;SDS011;1320;48.128;11.592;2023-02-23T08:27:20;15.97;;;10.37;;
2620;SDS011;1320;48.128;11.592;2023-02-23T08:29:45;19.57;;;12.23;;
2620;SDS011;1320;48.128;11.592;2023-02-23T08:32:11;17.00;;;10.33;;
2620;SDS011;1320;48.128;11.592;2023-02-23T08:34:38;18.97;;;11.90;;
2620;SDS011;1320;48.128;11.592;2023-02-23T08:37:05;17.47;;;11.90;;
2620;SDS011;1320;48.128;11.592;2023-02-23T08:39:31;15.33;;;11.50;;
2620;SDS011;1320;48.128;11.592;2023-02-23T08:41:57;31.47;;;10.73;;
2620;SDS011;1320;48.128;11.592;2023-02-23T08:44:22;18.93;;;11.23;;
2620;SDS011;1320;48.128;11.592;2023-02-23T08:46:48;13.83;;;10.30;;
2620;SDS011;1320;48.128;11.592;2023-02-23T08:49:14;19.93;;;11.53;;
2620;SDS011;1320;48.128;11.592;2023-02-23T08:51:39;18.13;;;11.37;;
2620;SDS011;1320;48.128;11.592;2023-02-23T08:54:05;18.93;;;12.10;;
2620;SDS011;1320;48.128;11.592;2023-02-23T08:56:36;79.37;;;18.60;;
2620;SDS011;1320;48.128;11.592;2023-02-23T08:59:02;23.23;;;12.50;;
2620;SDS011;1320;48.128;11.592;2023-02-23T09:01:28;28.77;;;12.57;;
2620;SDS011;1320;48.128;11.592;2023-02-23T09:03:54;16.97;;;11.53;;
2620;SDS011;1320;48.128;11.592;2023-02-23T09:06:21;52.93;;;16.50;;
2620;SDS011;1320;48.128;11.592;2023-02-23T09:08:49;20.33;;;11.67;;
2620;SDS011;1320;48.128;11.592;2023-02-23T09:11:15;35.80;;;14.47;;
2620;SDS011;1320;48.128;11.592;2023-02-23T09:13:41;15.00;;;9.93;;
2620;SDS011;1320;48.128;11.592;2023-02-23T09:16:06;20.53;;;9.90;;
2620;SDS011;1320;48.128;11.592;2023-02-23T09:18:32;15.80;;;11.87;;
2620;SDS011;1320;48.128;11.592;2023-02-23T09:20:58;14.30;;;10.20;;
2620;SDS011;1320;48.128;11.592;2023-02-23T09:23:31;17.37;;;11.37;;
2620;SDS011;1320;48.128;11.592;2023-02-23T09:26:00;28.37;;;12.03;;
2620;SDS011;1320;48.128;11.592;2023-02-23T09:28:29;19.73;;;11.90;;
2620;SDS011;1320;48.128;11.592;2023-02-23T09:30:57;22.80;;;12.23;;
2620;SDS011;1320;48.128;11.592;2023-02-23T09:33:29;12.93;;;9.60;;
2620;SDS011;1320;48.128;11.592;2023-02-23T09:35:54;14.40;;;11.03;;
2620;SDS011;1320;48.128;11.592;2023-02-23T09:38:20;17.73;;;11.67;;
2620;SDS011;1320;48.128;11.592;2023-02-23T09:40:50;14.03;;;10.13;;
2620;SDS011;1320;48.128;11.592;2023-02-23T09:46:02;15.50;;;11.20;;
2620;SDS011;1320;48.128;11.592;2023-02-23T09:48:39;14.80;;;10.10;;
2620;SDS011;1320;48.128;11.592;2023-02-23T09:51:06;17.90;;;10.77;;
2620;SDS011;1320;48.128;11.592;2023-02-23T09:53:37;17.87;;;10.10;;
2620;SDS011;1320;48.128;11.592;2023-02-23T09:56:14;16.37;;;11.70;;
2620;SDS011;1320;48.128;11.592;2023-02-23T09:58:44;14.30;;;9.93;;
2620;SDS011;1320;48.128;11.592;2023-02-23T10:03:56;15.53;;;9.40;;
2620;SDS011;1320;48.128;11.592;2023-02-23T10:06:30;17.20;;;11.97;;
2620;SDS011;1320;48.128;11.592;2023-02-23T10:09:02;16.40;;;10.17;;
2620;SDS011;1320;48.128;11.592;2023-02-23T10:14:19;14.47;;;9.93;;
2620;SDS011;1320;48.128;11.592;2023-02-23T10:16:57;12.70;;;9.00;;
2620;SDS011;1320;48.128;11.592;2023-02-23T10:22:20;12.63;;;8.60;;
2620;SDS011;1320;48.128;11.592;2023-02-23T10:24:51;12.93;;;9.13;;
2620;SDS011;1320;48.128;11.592;2023-02-23T10:27:25;16.53;;;10.00;;
2620;SDS011;1320;48.128;11.592;2023-02-23T10:29:57;13.47;;;9.20;;
2620;SDS011;1320;48.128;11.592;2023-02-23T10:34:56;22.37;;;10.60;;
2620;SDS011;1320;48.128;11.592;2023-02-23T10:37:23;13.10;;;8.17;;
2620;SDS011;1320;48.128;11.592;2023-02-23T10:39:50;12.50;;;10.07;;
2620;SDS011;1320;48.128;11.592;2023-02-23T10:42:19;12.70;;;9.73;;
2620;SDS011;1320;48.128;11.592;2023-02-23T10:44:47;14.33;;;9.43;;
2620;SDS011;1320;48.128;11.592;2023-02-23T10:47:18;12.97;;;9.33;;
2620;SDS011;1320;48.128;11.592;2023-02-23T10:49:50;11.77;;;8.23;;
2620;SDS011;1320;48.128;11.592;2023-02-23T10:55:05;11.90;;;7.67;;
2620;SDS011;1320;48.128;11.592;2023-02-23T10:57:33;10.30;;;8.17;;
2620;SDS011;1320;48.128;11.592;2023-02-23T11:02:35;11.03;;;8.20;;
2620;SDS011;1320;48.128;11.592;2023-02-23T11:05:01;12.73;;;7.90;;
2620;SDS011;1320;48.128;11.592;2023-02-23T11:07:29;9.07;;;6.83;;
2620;SDS011;1320;48.128;11.592;2023-02-23T11:09:57;10.27;;;7.43;;
2620;SDS011;1320;48.128;11.592;2023-02-23T11:12:37;13.10;;;8.23;;
2620;SDS011;1320;48.128;11.592;2023-02-23T11:17:55;14.80;;;7.33;;
2620;SDS011;1320;48.128;11.592;2023-02-23T11:20:28;10.23;;;7.37;;
2620;SDS011;1320;48.128;11.592;2023-02-23T11:22:54;12.47;;;7.57;;
2620;SDS011;1320;48.128;11.592;2023-02-23T11:25:26;14.00;;;8.30;;
2620;SDS011;1320;48.128;11.592;2023-02-23T11:27:54;11.90;;;7.50;;
2620;SDS011;1320;48.128;11.592;2023-02-23T11:30:26;10.77;;;6.97;;
2620;SDS011;1320;48.128;11.592;2023-02-23T11:33:00;10.40;;;7.00;;
2620;SDS011;1320;48.128;11.592;2023-02-23T11:35:35;7.53;;;5.07;;
2620;SDS011;1320;48.128;11.592;2023-02-23T11:40:56;12.17;;;7.30;;
2620;SDS011;1320;48.128;11.592;2023-02-23T11:43:24;9.07;;;6.43;;
2620;SDS011;1320;48.128;11.592;2023-02-23T11:45:50;8.27;;;6.47;;
2620;SDS011;1320;48.128;11.592;2023-02-23T11:48:21;13.13;;;7.37;;
2620;SDS011;1320;48.128;11.592;2023-02-23T11:50:54;10.90;;;8.30;;
2620;SDS011;1320;48.128;11.592;2023-02-23T11:53:36;10.40;;;7.50;;
2620;SDS011;1320;48.128;11.592;2023-02-23T11:56:04;10.30;;;7.00;;
2620;SDS011;1320;48.128;11.592;2023-02-23T11:58:45;10.13;;;6.90;;
2620;SDS011;1320;48.128;11.592;2023-02-23T12:01:17;10.40;;;7.23;;
2620;SDS011;1320;48.128;11.592;2023-02-23T12:04:08;10.07;;;6.40;;
2620;SDS011;1320;48.128;11.592;2023-02-23T12:10:05;10.67;;;7.40;;
2620;SDS011;1320;48.128;11.592;2023-02-23T12:12:43;10.70;;;6.83;;
2620;SDS011;1320;48.128;11.592;2023-02-23T12:15:30;11.17;;;7.20;;
2620;SDS011;1320;48.128;11.592;2023-02-23T12:18:10;10.60;;;7.40;;
2620;SDS011;1320;48.128;11.592;2023-02-23T12:20:48;9.80;;;6.97;;
2620;SDS011;1320;48.128;11.592;2023-02-23T12:23:19;11.20;;;6.50;;
2620;SDS011;1320;48.128;11.592;2023-02-23T12:25:51;9.80;;;7.83;;
2620;SDS011;1320;48.128;11.592;2023-02-23T12:28:30;10.00;;;7.50;;
2620;SDS011;1320;48.128;11.592;2023-02-23T12:31:20;13.60;;;7.93;;
2620;SDS011;1320;48.128;11.592;2023-02-23T12:33:54;15.20;;;7.30;;
2620;SDS011;1320;48.128;11.592;2023-02-23T12:36:45;13.03;;;7.23;;
2620;SDS011;1320;48.128;11.592;2023-02-23T12:39:34;14.73;;;7.20;;
2620;SDS011;1320;48.128;11.592;2023-02-23T12:44:45;9.83;;;6.37;;
2620;SDS011;1320;48.128;11.592;2023-02-23T12:56:01;7.83;;;5.10;;
2620;SDS011;1320;48.128;11.592;2023-02-23T13:01:38;9.37;;;5.70;;
2620;SDS011;1320;48.128;11.592;2023-02-23T13:13:13;5.80;;;4.17;;
2620;SDS011;1320;48.128;11.592;2023-02-23T13:16:10;6.83;;;5.00;;
2620;SDS011;1320;48.128;11.592;2023-02-23T13:18:38;6.80;;;4.93;;
2620;SDS011;1320;48.128;11.592;2023-02-23T13:21:13;7.37;;;5.23;;
2620;SDS011;1320;48.128;11.592;2023-02-23T13:32:16;5.77;;;4.27;;
2620;SDS011;1320;48.128;11.592;2023-02-23T13:34:48;6.47;;;4.87;;
2620;SDS011;1320;48.128;11.592;2023-02-23T13:54:00;5.27;;;4.60;;
2620;SDS011;1320;48.128;11.592;2023-02-23T13:56:31;5.43;;;4.20;;
2620;SDS011;1320;48.128;11.592;2023-02-23T13:59:06;6.10;;;4.00;;
2620;SDS011;1320;48.128;11.592;2023-02-23T14:01:41;4.73;;;3.10;;
2620;SDS011;1320;48.128;11.592;2023-02-23T14:04:21;5.33;;;3.67;;
2620;SDS011;1320;48.128;11.592;2023-02-23T14:06:56;7.00;;;3.63;;
2620;SDS011;1320;48.128;11.592;2023-02-23T14:09:30;11.07;;;5.07;;
2620;SDS011;1320;48.128;11.592;2023-02-23T14:19:43;4.10;;;2.33;;
2620;SDS011;1320;48.128;11.592;2023-02-23T14:22:36;3.57;;;2.30;;
2620;SDS011;1320;48.128;11.592;2023-02-23T14:28:34;4.90;;;2.77;;
2620;SDS011;1320;48.128;11.592;2023-02-23T14:38:57;5.70;;;3.10;;
2620;SDS011;1320;48.128;11.592;2023-02-23T14:41:28;5.93;;;3.07;;
2620;SDS011;1320;48.128;11.592;2023-02-23T14:46:30;5.03;;;2.60;;
2620;SDS011;1320;48.128;11.592;2023-02-23T14:51:33;7.37;;;2.50;;
2620;SDS011;1320;48.128;11.592;2023-02-23T14:54:00;3.83;;;2.60;;
2620;SDS011;1320;48.128;11.592;2023-02-23T14:56:35;4.30;;;3.03;;
2620;SDS011;1320;48.128;11.592;2023-02-23T14:59:14;8.33;;;2.47;;
2620;SDS011;1320;48.128;11.592;2023-02-23T15:01:45;4.63;;;2.50;;
2620;SDS011;1320;48.128;11.592;2023-02-23T15:04:21;6.07;;;2.60;;
2620;SDS011;1320;48.128;11.592;2023-02-23T15:06:48;3.87;;;2.40;;
2620;SDS011;1320;48.128;11.592;2023-02-23T15:11:56;5.47;;;3.13;;
2620;SDS011;1320;48.128;11.592;2023-02-23T15:14:23;5.40;;;3.00;;
2620;SDS011;1320;48.128;11.592;2023-02-23T15:16:49;6.60;;;2.73;;
2620;SDS011;1320;48.128;11.592;2023-02-23T15:19:16;7.87;;;3.77;;
2620;SDS011;1320;48.128;11.592;2023-02-23T15:21:54;4.37;;;2.93;;
2620;SDS011;1320;48.128;11.592;2023-02-23T15:24:24;4.40;;;3.23;;
2620;SDS011;1320;48.128;11.592;2023-02-23T15:26:52;4.87;;;2.90;;
2620;SDS011;1320;48.128;11.592;2023-02-23T15:29:22;6.60;;;2.97;;
2620;SDS011;1320;48.128;11.592;2023-02-23T15:32:08;5.43;;;3.67;;
2620;SDS011;1320;48.128;11.592;2023-02-23T15:34:42;7.23;;;3.07;;
2620;SDS011;1320;48.128;11.592;2023-02-23T15:37:10;5.30;;;3.50;;
2620;SDS011;1320;48.128;11.592;2023-02-23T15:39:50;5.67;;;3.70;;
2620;SDS011;1320;48.128;11.592;2023-02-23T15:42:22;6.37;;;3.53;;
2620;SDS011;1320;48.128;11.592;2023-02-23T15:44:53;7.80;;;3.57;;
2620;SDS011;1320;48.128;11.592;2023-02-23T15:47:24;9.37;;;3.50;;
2620;SDS011;1320;48.128;11.592;2023-02-23T15:50:00;4.80;;;2.87;;
2620;SDS011;1320;48.128;11.592;2023-02-23T15:52:32;3.90;;;2.03;;
2620;SDS011;1320;48.128;11.592;2023-02-23T15:55:08;6.53;;;3.20;;
2620;SDS011;1320;48.128;11.592;2023-02-23T15:57:48;6.03;;;3.50;;
2620;SDS011;1320;48.128;11.592;2023-02-23T16:00:19;7.57;;;3.40;;
2620;SDS011;1320;48.128;11.592;2023-02-23T16:02:56;5.30;;;3.23;;
2620;SDS011;1320;48.128;11.592;2023-02-23T16:05:26;7.43;;;5.40;;
2620;SDS011;1320;48.128;11.592;2023-02-23T16:08:04;9.83;;;4.90;;
2620;SDS011;1320;48.128;11.592;2023-02-23T16:11:00;8.10;;;3.53;;
2620;SDS011;1320;48.128;11.592;2023-02-23T16:13:30;6.73;;;3.33;;
2620;SDS011;1320;48.128;11.592;2023-02-23T16:15:56;4.47;;;2.67;;
2620;SDS011;1320;48.128;11.592;2023-02-23T16:18:34;6.73;;;3.80;;
2620;SDS011;1320;48.128;11.592;2023-02-23T16:21:03;7.73;;;3.40;;
2620;SDS011;1320;48.128;11.592;2023-02-23T16:23:39;5.07;;;3.20;;
2620;SDS011;1320;48.128;11.592;2023-02-23T16:26:09;5.40;;;3.77;;
2620;SDS011;1320;48.128;11.592;2023-02-23T16:28:52;10.03;;;4.37;;
2620;SDS011;1320;48.128;11.592;2023-02-23T16:31:22;9.50;;;4.87;;
2620;SDS011;1320;48.128;11.592;2023-02-23T16:33:53;5.67;;;3.10;;
2620;SDS011;1320;48.128;11.592;2023-02-23T16:36:32;5.77;;;2.83;;
2620;SDS011;1320;48.128;11.592;2023-02-23T16:39:05;6.40;;;2.90;;
2620;SDS011;1320;48.128;11.592;2023-02-23T16:41:35;8.20;;;3.17;;
2620;SDS011;1320;48.128;11.592;2023-02-23T16:44:02;5.73;;;3.50;;
2620;SDS011;1320;48.128;11.592;2023-02-23T16:46:53;5.77;;;3.10;;
2620;SDS011;1320;48.128;11.592;2023-02-23T16:49:18;7.20;;;2.57;;
2620;SDS011;1320;48.128;11.592;2023-02-23T16:51:48;5.83;;;3.13;;
2620;SDS011;1320;48.128;11.592;2023-02-23T16:54:14;4.60;;;2.20;;
2620;SDS011;1320;48.128;11.592;2023-02-23T16:56:40;6.30;;;3.00;;
2620;SDS011;1320;48.128;11.592;2023-02-23T16:59:05;7.60;;;4.43;;
2620;SDS011;1320;48.128;11.592;2023-02-23T17:01:34;8.47;;;4.60;;
2620;SDS011;1320;48.128;11.592;2023-02-23T17:04:00;9.20;;;3.57;;
2620;SDS011;1320;48.128;11.592;2023-02-23T17:06:26;9.73;;;3.90;;
2620;SDS011;1320;48.128;11.592;2023-02-23T17:08:52;5.00;;;3.40;;
2620;SDS011;1320;48.128;11.592;2023-02-23T17:11:18;8.50;;;3.93;;
2620;SDS011;1320;48.128;11.592;2023-02-23T17:13:44;12.40;;;3.70;;
2620;SDS011;1320;48.128;11.592;2023-02-23T17:16:10;8.00;;;4.03;;
2620;SDS011;1320;48.128;11.592;2023-02-23T17:18:37;6.50;;;3.93;;
2620;SDS011;1320;48.128;11.592;2023-02-23T17:21:05;6.57;;;3.80;;
2620;SDS011;1320;48.128;11.592;2023-02-23T17:23:33;6.07;;;4.03;;
2620;SDS011;1320;48.128;11.592;2023-02-23T17:26:15;7.33;;;4.57;;
2620;SDS011;1320;48.128;11.592;2023-02-23T17:28:46;8.27;;;4.10;;